Time;durP1;ratioP1;P1;durP2;ratioP2;P2;SDS_P1;SDS_P2;PMS_P1;PMS_P2;Temp;Humidity;BMP_temperature;BMP_pressure;BME280_temperature;BME280_humidity;BME280_pressure;Samples;Min_cycle;Max_cycle;Signal;HPM_P1;HPM_P2
2022/03/11 00:01:56;;;;;;;8.57;4.40;;;0.40;60.20;;;;;;5071826;28;20446;-77
2022/03/11 00:04:38;;;;;;;11.87;4.63;;;0.40;60.20;;;;;;5072472;28;20478;-76
2022/03/11 00:07:08;;;;;;;9.63;4.40;;;0.40;60.20;;;;;;5072442;28;20811;-78
2022/03/11 00:09:37;;;;;;;7.53;4.23;;;0.30;60.30;;;;;;5072046;28;20920;-78
2022/03/11 00:12:06;;;;;;;10.20;4.23;;;0.30;61.00;;;;;;5071956;28;20962;-77
2022/03/11 00:14:34;;;;;;;14.47;4.70;;;0.20;61.30;;;;;;5072538;28;20517;-77
2022/03/11 00:17:03;;;;;;;9.63;4.53;;;0.20;60.60;;;;;;5072592;28;20438;-78
2022/03/11 00:19:32;;;;;;;6.80;4.30;;;0.20;60.40;;;;;;5072665;28;20878;-76
2022/03/11 00:22:00;;;;;;;6.57;4.47;;;0.20;60.40;;;;;;5072649;28;20446;-76
2022/03/11 00:24:30;;;;;;;7.60;4.50;;;0.10;61.00;;;;;;5071609;28;20462;-77
2022/03/11 00:27:01;;;;;;;10.23;4.77;;;0.10;61.10;;;;;;5071370;28;20454;-79
2022/03/11 00:29:29;;;;;;;8.60;4.33;;;0.10;61.00;;;;;;5074717;28;20500;-78
2022/03/11 00:31:57;;;;;;;8.80;4.53;;;0.00;61.70;;;;;;5071299;28;20499;-79
2022/03/11 00:34:26;;;;;;;6.30;4.00;;;0.00;61.60;;;;;;5072315;28;20457;-74
2022/03/11 00:36:54;;;;;;;7.67;4.43;;;0.00;62.10;;;;;;5072277;28;20481;-76
2022/03/11 00:39:22;;;;;;;6.50;4.13;;;-0.10;62.50;;;;;;5073311;28;20480;-76
2022/03/11 00:41:55;;;;;;;7.83;4.30;;;-0.10;62.70;;;;;;5080620;28;20466;-78
2022/03/11 00:44:26;;;;;;;7.93;4.57;;;-0.20;63.50;;;;;;5075636;28;20434;-78
2022/03/11 00:46:55;;;;;;;10.20;4.90;;;-0.10;63.50;;;;;;5075884;28;21062;-78
2022/03/11 00:49:24;;;;;;;8.97;5.23;;;-0.20;63.50;;;;;;5076114;28;20458;-77
2022/03/11 00:51:52;;;;;;;9.30;5.00;;;-0.20;64.00;;;;;;5076046;28;20480;-77
2022/03/11 00:54:20;;;;;;;8.40;4.50;;;-0.20;64.50;;;;;;5075747;28;21013;-77
2022/03/11 00:56:48;;;;;;;12.47;4.87;;;-0.30;64.80;;;;;;5075767;28;20481;-78
2022/03/11 00:59:18;;;;;;;8.50;4.80;;;-0.30;65.30;;;;;;5076091;28;20472;-77
2022/03/11 01:01:49;;;;;;;7.70;4.77;;;-0.30;65.60;;;;;;5075484;28;20477;-80
2022/03/11 01:04:17;;;;;;;7.90;4.77;;;-0.30;65.80;;;;;;5075216;28;20943;-77
2022/03/11 01:06:45;;;;;;;7.77;4.73;;;-0.40;65.90;;;;;;5075396;28;20992;-78
2022/03/11 01:09:13;;;;;;;8.30;5.27;;;-0.40;66.10;;;;;;5075989;28;20464;-74
2022/03/11 01:11:41;;;;;;;8.67;5.00;;;-0.40;66.40;;;;;;5076174;28;20978;-77
2022/03/11 01:14:10;;;;;;;8.87;5.07;;;-0.40;66.70;;;;;;5077731;28;20465;-79
2022/03/11 01:16:39;;;;;;;8.13;5.23;;;-0.50;67.00;;;;;;5076830;28;20466;-75
2022/03/11 01:19:07;;;;;;;8.80;4.70;;;-0.50;67.70;;;;;;5076428;28;20445;-76
2022/03/11 01:21:35;;;;;;;9.27;5.10;;;-0.50;67.70;;;;;;5075662;28;20488;-76
2022/03/11 01:24:06;;;;;;;9.50;5.23;;;-0.50;68.00;;;;;;5076200;28;20525;-76
2022/03/11 01:26:35;;;;;;;13.10;5.30;;;-0.60;68.00;;;;;;5075694;28;20531;-77
2022/03/11 01:29:03;;;;;;;9.53;5.50;;;-0.60;68.70;;;;;;5076060;28;20506;-76
2022/03/11 01:31:31;;;;;;;8.80;5.00;;;-0.70;68.50;;;;;;5075519;28;20496;-76
2022/03/11 01:34:01;;;;;;;8.50;5.50;;;-0.60;68.70;;;;;;5075466;28;20448;-75
2022/03/11 01:36:29;;;;;;;10.60;5.50;;;-0.70;68.90;;;;;;5075392;28;20515;-76
2022/03/11 01:38:57;;;;;;;8.77;5.90;;;-0.70;69.00;;;;;;5075365;28;20470;-77
2022/03/11 01:41:28;;;;;;;11.87;5.53;;;-0.80;69.80;;;;;;5075118;28;20430;-75
2022/03/11 01:44:00;;;;;;;9.07;5.10;;;-0.80;69.60;;;;;;5074938;28;20488;-77
2022/03/11 01:46:29;;;;;;;8.07;5.33;;;-0.90;69.80;;;;;;5074660;28;20517;-74
2022/03/11 01:49:04;;;;;;;13.47;5.80;;;-0.90;70.80;;;;;;5075469;28;20460;-75
2022/03/11 01:51:34;;;;;;;10.17;5.27;;;-0.90;70.30;;;;;;5074844;28;20523;-78
2022/03/11 01:54:02;;;;;;;10.53;5.13;;;-0.90;70.30;;;;;;5074556;28;20491;-76
2022/03/11 01:56:33;;;;;;;10.47;5.20;;;-0.90;70.60;;;;;;5075904;28;20446;-75
2022/03/11 01:59:02;;;;;;;8.10;5.57;;;-0.90;70.80;;;;;;5075026;28;20465;-74
2022/03/11 02:01:30;;;;;;;10.30;5.63;;;-1.00;70.90;;;;;;5075054;28;20549;-77
2022/03/11 02:03:58;;;;;;;11.80;6.00;;;-1.00;71.60;;;;;;5074927;28;20507;-77
2022/03/11 02:06:31;;;;;;;9.37;5.63;;;-1.00;71.50;;;;;;5075109;28;20551;-75
2022/03/11 02:09:02;;;;;;;10.40;5.57;;;-1.00;71.80;;;;;;5074782;28;20458;-76
2022/03/11 02:11:31;;;;;;;8.57;5.23;;;-1.00;72.20;;;;;;5079138;28;20798;-76
2022/03/11 02:14:01;;;;;;;8.47;5.43;;;-1.00;72.30;;;;;;5075062;28;20810;-75
2022/03/11 02:16:32;;;;;;;8.87;5.20;;;-1.00;72.50;;;;;;5074461;28;20541;-77
2022/03/11 02:19:01;;;;;;;9.67;5.50;;;-1.10;72.40;;;;;;5074728;28;20778;-76
2022/03/11 02:21:30;;;;;;;11.53;5.90;;;-1.10;72.70;;;;;;5074482;28;20579;-75
2022/03/11 02:24:01;;;;;;;10.07;5.07;;;-1.10;73.20;;;;;;5074214;28;21045;-76
2022/03/11 02:26:30;;;;;;;9.57;5.77;;;-1.10;73.40;;;;;;5073970;28;20524;-75
2022/03/11 02:29:00;;;;;;;8.83;5.83;;;-1.10;73.80;;;;;;5074624;28;20471;-74
2022/03/11 02:31:29;;;;;;;9.73;5.90;;;-1.10;73.50;;;;;;5074182;28;20492;-74
2022/03/11 02:33:59;;;;;;;9.90;5.67;;;-1.20;73.90;;;;;;5073959;28;20449;-76
2022/03/11 02:36:31;;;;;;;9.83;5.97;;;-1.20;74.00;;;;;;5074103;28;20461;-76
2022/03/11 02:39:01;;;;;;;12.33;5.53;;;-1.20;74.30;;;;;;5074084;28;20489;-74
2022/03/11 02:41:29;;;;;;;9.33;5.77;;;-1.20;74.70;;;;;;5073372;28;20484;-78
2022/03/11 02:43:58;;;;;;;11.63;6.00;;;-1.30;75.30;;;;;;5073181;28;20492;-75
2022/03/11 02:46:26;;;;;;;8.47;5.70;;;-1.30;75.30;;;;;;5073157;28;20560;-76
2022/03/11 02:48:55;;;;;;;11.20;6.07;;;-1.40;75.80;;;;;;5073165;28;20538;-77
2022/03/11 02:51:23;;;;;;;8.93;5.67;;;-1.50;76.10;;;;;;5073355;28;20841;-75
2022/03/11 02:53:54;;;;;;;9.83;5.87;;;-1.50;76.30;;;;;;5073219;28;20559;-77
2022/03/11 02:56:25;;;;;;;8.30;5.47;;;-1.50;76.70;;;;;;5072995;28;20454;-75
2022/03/11 02:58:53;;;;;;;11.20;6.10;;;-1.50;76.80;;;;;;5073604;28;20751;-78
2022/03/11 03:01:21;;;;;;;11.80;6.10;;;-1.50;77.10;;;;;;5072653;28;20454;-76
2022/03/11 03:03:52;;;;;;;11.13;6.13;;;-1.50;77.30;;;;;;5075913;28;20460;-75
2022/03/11 03:06:20;;;;;;;9.33;5.53;;;-1.60;77.60;;;;;;5074271;28;20504;-77
2022/03/11 03:08:48;;;;;;;11.60;6.13;;;-1.60;78.00;;;;;;5074815;28;20953;-79
2022/03/11 03:11:16;;;;;;;10.07;6.10;;;-1.60;78.10;;;;;;5072867;28;20568;-75
2022/03/11 03:13:45;;;;;;;9.57;6.03;;;-1.60;78.60;;;;;;5072626;28;20445;-79
2022/03/11 03:16:13;;;;;;;10.93;6.00;;;-1.70;79.00;;;;;;5072428;28;20488;-77
2022/03/11 03:18:42;;;;;;;10.17;6.13;;;-1.70;79.60;;;;;;5072898;28;20981;-78
2022/03/11 03:21:10;;;;;;;10.57;6.50;;;-1.70;80.20;;;;;;5072204;28;20531;-79
2022/03/11 03:23:40;;;;;;;10.53;6.47;;;-1.80;80.40;;;;;;5072442;28;20535;-80
2022/03/11 03:26:09;;;;;;;9.37;6.03;;;-1.80;80.80;;;;;;5072345;28;20492;-78
2022/03/11 03:28:37;;;;;;;12.83;6.53;;;-1.90;81.20;;;;;;5072801;28;20484;-78
2022/03/11 03:31:07;;;;;;;13.70;6.60;;;-1.90;81.30;;;;;;5072058;28;20457;-80
2022/03/11 03:33:35;;;;;;;10.47;6.70;;;-1.90;81.60;;;;;;5075818;28;20945;-79
2022/03/11 03:36:03;;;;;;;10.40;6.63;;;-1.90;81.90;;;;;;5072094;28;20938;-78
2022/03/11 03:38:32;;;;;;;10.73;6.63;;;-1.90;82.20;;;;;;5071786;28;20474;-78
2022/03/11 03:41:00;;;;;;;10.73;6.63;;;-1.90;82.10;;;;;;5072252;28;20465;-77
2022/03/11 03:43:29;;;;;;;11.17;6.67;;;-1.90;82.50;;;;;;5071835;28;20454;-76
2022/03/11 03:46:00;;;;;;;11.83;6.23;;;-1.90;83.00;;;;;;5072228;28;20448;-80
2022/03/11 03:48:30;;;;;;;11.43;6.50;;;-2.00;83.30;;;;;;5071543;28;20484;-77
2022/03/11 03:50:58;;;;;;;12.90;6.90;;;-2.00;83.50;;;;;;5071767;28;20469;-79
2022/03/11 03:53:27;;;;;;;10.67;6.80;;;-2.00;83.90;;;;;;5071854;28;20450;-79
2022/03/11 03:55:57;;;;;;;12.57;6.77;;;-2.00;84.20;;;;;;5071600;28;20551;-76
2022/03/11 03:58:25;;;;;;;11.80;6.77;;;-2.00;84.30;;;;;;5071799;28;20528;-78
2022/03/11 04:00:53;;;;;;;12.43;6.70;;;-2.10;84.90;;;;;;5071606;28;20550;-74
2022/03/11 04:03:22;;;;;;;10.67;6.93;;;-2.10;85.30;;;;;;5071703;28;20459;-78
2022/03/11 04:05:51;;;;;;;10.13;6.80;;;-2.10;85.90;;;;;;5071702;28;20453;-76
2022/03/11 04:08:24;;;;;;;11.20;7.33;;;-2.10;86.00;;;;;;5071772;28;20480;-78
2022/03/11 04:10:52;;;;;;;12.50;6.80;;;-2.20;86.10;;;;;;5071049;28;20565;-78
2022/03/11 04:13:20;;;;;;;14.30;6.73;;;-2.20;86.50;;;;;;5071964;28;20447;-78
2022/03/11 04:15:48;;;;;;;12.03;7.10;;;-2.20;87.20;;;;;;5071673;28;20536;-79
2022/03/11 04:18:16;;;;;;;12.10;7.30;;;-2.20;87.40;;;;;;5070635;28;20809;-78
2022/03/11 04:20:45;;;;;;;14.73;7.17;;;-2.20;87.80;;;;;;5071532;28;20505;-79
2022/03/11 04:23:14;;;;;;;11.27;7.40;;;-2.30;88.20;;;;;;5072033;28;20870;-78
2022/03/11 04:25:42;;;;;;;12.33;6.83;;;-2.30;88.30;;;;;;5071618;28;20488;-78
2022/03/11 04:28:11;;;;;;;11.83;7.30;;;-2.30;88.90;;;;;;5072009;28;20490;-76
2022/03/11 04:30:39;;;;;;;13.87;7.00;;;-2.30;89.10;;;;;;5071793;28;20545;-80
2022/03/11 04:33:08;;;;;;;13.10;7.20;;;-2.40;89.70;;;;;;5071616;28;20452;-76
2022/03/11 04:35:36;;;;;;;12.20;7.17;;;-2.40;90.00;;;;;;5071557;28;20525;-77
2022/03/11 04:38:04;;;;;;;12.07;7.00;;;-2.40;90.10;;;;;;5071153;28;20523;-78
2022/03/11 04:40:33;;;;;;;12.30;7.03;;;-2.40;90.30;;;;;;5071419;28;21074;-74
2022/03/11 04:43:02;;;;;;;10.73;7.30;;;-2.50;90.50;;;;;;5071478;28;20445;-79
2022/03/11 04:45:30;;;;;;;13.03;7.23;;;-2.50;90.50;;;;;;5071834;28;20936;-79
2022/03/11 04:47:58;;;;;;;14.57;7.70;;;-2.50;90.70;;;;;;5071351;28;20642;-76
2022/03/11 04:50:26;;;;;;;13.47;8.40;;;-2.50;91.20;;;;;;5071639;28;20524;-75
2022/03/11 04:52:55;;;;;;;12.53;7.50;;;-2.50;91.10;;;;;;5068799;28;20444;-76
2022/03/11 04:55:23;;;;;;;12.47;8.43;;;-2.60;91.30;;;;;;5071071;28;20479;-74
2022/03/11 04:57:53;;;;;;;10.20;6.87;;;-2.60;91.60;;;;;;5071646;28;20465;-75
2022/03/11 05:00:21;;;;;;;12.57;7.90;;;-2.60;91.80;;;;;;5069928;28;21096;-74
2022/03/11 05:02:52;;;;;;;13.37;8.63;;;-2.60;91.80;;;;;;5071376;28;20781;-75
2022/03/11 05:05:21;;;;;;;15.50;9.13;;;-2.60;92.00;;;;;;5070603;28;20455;-79
2022/03/11 05:07:49;;;;;;;17.50;9.20;;;-2.60;92.20;;;;;;5071805;28;20525;-74
2022/03/11 05:10:18;;;;;;;17.00;10.80;;;-2.60;92.40;;;;;;5071253;28;20473;-77
2022/03/11 05:12:46;;;;;;;20.43;11.03;;;-2.70;92.60;;;;;;5068734;28;20969;-75
2022/03/11 05:15:15;;;;;;;20.40;11.10;;;-2.70;93.00;;;;;;5071705;28;20484;-77
2022/03/11 05:17:44;;;;;;;21.27;12.27;;;-2.70;93.10;;;;;;5071684;28;20521;-76
2022/03/11 05:20:12;;;;;;;17.57;11.53;;;-2.70;93.20;;;;;;5071459;28;20959;-76
2022/03/11 05:22:42;;;;;;;13.37;8.40;;;-2.70;93.50;;;;;;5071376;28;20448;-74
2022/03/11 05:25:11;;;;;;;14.20;9.17;;;-2.80;93.70;;;;;;5071332;28;20547;-78
2022/03/11 05:27:39;;;;;;;14.50;8.83;;;-2.80;94.00;;;;;;5070611;28;20564;-78
2022/03/11 05:30:09;;;;;;;13.53;8.80;;;-2.80;94.20;;;;;;5070508;28;20440;-76
2022/03/11 05:32:46;;;;;;;13.97;9.07;;;-2.80;94.40;;;;;;5074637;28;20869;-77
2022/03/11 05:35:18;;;;;;;13.53;9.37;;;-2.80;94.50;;;;;;5072414;28;20461;-76
2022/03/11 05:37:47;;;;;;;15.63;9.43;;;-2.80;94.60;;;;;;5073966;28;20453;-77
2022/03/11 05:40:16;;;;;;;13.13;8.57;;;-2.80;94.70;;;;;;5073940;28;20447;-79
2022/03/11 05:42:44;;;;;;;14.93;9.10;;;-2.80;94.90;;;;;;5073748;28;20536;-78
2022/03/11 05:45:12;;;;;;;17.50;10.57;;;-2.80;95.10;;;;;;5074298;28;20502;-74
2022/03/11 05:47:43;;;;;;;18.83;11.73;;;-2.80;95.20;;;;;;5072713;28;20998;-78
2022/03/11 05:50:12;;;;;;;14.80;9.80;;;-2.80;95.30;;;;;;5073717;28;20281;-78
2022/03/11 05:52:42;;;;;;;15.90;10.27;;;-2.80;95.60;;;;;;5074570;28;20440;-75
2022/03/11 05:55:10;;;;;;;16.03;9.03;;;-2.80;95.70;;;;;;5074258;28;20449;-76
2022/03/11 05:57:40;;;;;;;16.83;9.93;;;-2.70;95.80;;;;;;5074171;28;20445;-76
2022/03/11 06:00:09;;;;;;;14.03;9.30;;;-2.70;95.80;;;;;;5073754;28;20537;-77
2022/03/11 06:02:39;;;;;;;16.47;9.23;;;-2.70;95.80;;;;;;5073749;28;20857;-77
2022/03/11 06:05:10;;;;;;;14.83;8.80;;;-2.70;95.80;;;;;;5073720;28;20449;-78
2022/03/11 06:07:40;;;;;;;16.97;9.30;;;-2.70;95.90;;;;;;5074067;28;20433;-79
2022/03/11 06:10:09;;;;;;;16.60;9.47;;;-2.70;95.90;;;;;;5074054;28;20473;-79
2022/03/11 06:12:37;;;;;;;13.10;8.90;;;-2.70;96.00;;;;;;5074020;28;20557;-76
2022/03/11 06:15:11;;;;;;;15.67;9.83;;;-2.60;95.90;;;;;;5073912;28;20974;-78
2022/03/11 06:17:39;;;;;;;15.47;9.77;;;-2.50;95.90;;;;;;5074357;28;20456;-77
2022/03/11 06:20:12;;;;;;;14.23;8.97;;;-2.50;95.70;;;;;;5073945;28;20922;-79
2022/03/11 06:22:47;;;;;;;15.90;10.00;;;-2.40;95.50;;;;;;5073834;28;20516;-77
2022/03/11 06:25:16;;;;;;;15.27;9.17;;;-2.40;95.60;;;;;;5073443;28;21104;-76
2022/03/11 06:27:45;;;;;;;13.53;9.50;;;-2.40;95.50;;;;;;5067437;28;20489;-78
2022/03/11 06:30:15;;;;;;;13.87;9.30;;;-2.30;95.60;;;;;;5069753;28;21963;-77
2022/03/11 06:32:46;;;;;;;15.43;9.50;;;-2.30;95.50;;;;;;5073248;28;20510;-77
2022/03/11 06:35:16;;;;;;;12.47;8.67;;;-2.20;95.60;;;;;;5074010;28;20824;-78
2022/03/11 06:37:46;;;;;;;19.90;10.33;;;-2.10;95.40;;;;;;5074184;28;21291;-78
2022/03/11 06:40:15;;;;;;;15.00;9.17;;;-2.10;95.40;;;;;;5065349;28;20827;-76
2022/03/11 06:42:44;;;;;;;15.30;9.13;;;-2.10;95.20;;;;;;5067184;28;20569;-76
2022/03/11 06:45:14;;;;;;;14.10;9.50;;;-2.00;95.10;;;;;;5072143;28;20481;-79
2022/03/11 06:47:44;;;;;;;15.73;9.40;;;-2.00;95.00;;;;;;5072381;28;20452;-78
2022/03/11 06:50:12;;;;;;;13.67;9.07;;;-1.90;94.90;;;;;;5071065;28;20448;-77
2022/03/11 06:52:42;;;;;;;14.60;8.93;;;-1.90;94.70;;;;;;5069027;28;20515;-78
2022/03/11 06:55:14;;;;;;;14.37;9.43;;;-1.80;94.70;;;;;;5075362;28;20507;-77
2022/03/11 06:57:44;;;;;;;16.10;9.87;;;-1.80;94.80;;;;;;5067918;28;20926;-76
2022/03/11 07:00:14;;;;;;;18.23;9.93;;;-1.70;94.90;;;;;;5071198;28;20449;-77
2022/03/11 07:02:43;;;;;;;16.13;9.80;;;-1.60;94.70;;;;;;5066762;28;20464;-75
2022/03/11 07:05:12;;;;;;;14.50;9.70;;;-1.50;94.50;;;;;;5065225;28;20533;-75
2022/03/11 07:07:46;;;;;;;18.17;10.53;;;-1.50;94.30;;;;;;5076757;28;20533;-77
2022/03/11 07:10:16;;;;;;;17.33;10.40;;;-1.40;94.50;;;;;;5065086;28;20485;-76
2022/03/11 07:12:45;;;;;;;17.70;10.33;;;-1.30;94.20;;;;;;5066659;28;20466;-74
2022/03/11 07:15:13;;;;;;;16.47;9.80;;;-1.30;94.00;;;;;;5077826;28;20479;-75
2022/03/11 07:17:42;;;;;;;17.43;9.70;;;-1.20;93.80;;;;;;5079852;28;20599;-77
2022/03/11 07:20:13;;;;;;;16.73;10.00;;;-1.10;93.90;;;;;;5074991;28;20508;-73
2022/03/11 07:22:47;;;;;;;16.90;11.10;;;-1.00;93.70;;;;;;5066302;28;20804;-76
2022/03/11 07:25:18;;;;;;;18.53;10.77;;;-0.90;93.60;;;;;;5068498;28;20454;-76
2022/03/11 07:27:48;;;;;;;16.13;10.87;;;-0.80;93.20;;;;;;5064403;28;20982;-78
2022/03/11 07:30:16;;;;;;;19.13;10.60;;;-0.70;93.10;;;;;;5059269;28;20986;-78
2022/03/11 07:32:45;;;;;;;15.73;10.53;;;-0.60;92.70;;;;;;5075320;28;21033;-79
2022/03/11 07:35:13;;;;;;;14.93;10.10;;;-0.50;92.60;;;;;;5074802;28;20453;-73
2022/03/11 07:37:43;;;;;;;17.43;10.27;;;-0.40;92.50;;;;;;5073972;28;20493;-74
2022/03/11 07:40:13;;;;;;;17.60;10.93;;;-0.20;92.30;;;;;;5073723;28;20478;-79
2022/03/11 07:42:43;;;;;;;18.17;10.57;;;-0.10;91.90;;;;;;5074716;28;20458;-74
2022/03/11 07:45:13;;;;;;;15.77;10.37;;;0.20;91.70;;;;;;5073668;28;20438;-75
2022/03/11 07:47:42;;;;;;;15.67;10.20;;;0.50;91.20;;;;;;5072793;28;20451;-77
2022/03/11 07:50:12;;;;;;;15.67;11.30;;;0.80;90.60;;;;;;5072599;28;20466;-76
2022/03/11 07:52:44;;;;;;;13.13;9.87;;;1.30;88.80;;;;;;5073279;28;20507;-77
2022/03/11 07:55:13;;;;;;;16.70;11.10;;;2.20;84.60;;;;;;5073914;28;20219;-76
2022/03/11 07:57:41;;;;;;;17.83;10.27;;;2.60;81.90;;;;;;5063725;28;20543;-75
2022/03/11 08:00:10;;;;;;;15.23;10.50;;;3.70;78.90;;;;;;5073090;28;20223;-74
2022/03/11 08:02:40;;;;;;;15.27;9.63;;;4.30;75.20;;;;;;5072790;28;20212;-78
2022/03/11 08:05:14;;;;;;;12.90;9.40;;;4.70;73.80;;;;;;5063194;28;20254;-74
2022/03/11 08:07:46;;;;;;;17.03;9.97;;;5.00;71.50;;;;;;5071413;28;20211;-76
2022/03/11 08:10:15;;;;;;;14.40;9.33;;;5.20;69.60;;;;;;5077041;28;20680;-77
2022/03/11 08:12:44;;;;;;;14.27;9.43;;;5.90;68.90;;;;;;5083231;28;20199;-76
2022/03/11 08:15:12;;;;;;;12.63;10.17;;;7.30;66.00;;;;;;5082432;28;20199;-78
2022/03/11 08:17:44;;;;;;;17.27;9.93;;;8.10;61.80;;;;;;5083383;28;20199;-77
2022/03/11 08:20:12;;;;;;;13.10;9.93;;;7.80;61.60;;;;;;5083589;28;20230;-75
2022/03/11 08:22:40;;;;;;;14.10;10.13;;;7.80;61.40;;;;;;5081485;28;20203;-76
2022/03/11 08:25:12;;;;;;;12.07;9.90;;;8.10;60.40;;;;;;5081776;28;20697;-78
2022/03/11 08:27:41;;;;;;;14.10;9.90;;;8.80;59.60;;;;;;5082030;28;20196;-76
2022/03/11 08:30:11;;;;;;;13.13;9.83;;;8.60;58.20;;;;;;5079942;28;20215;-78
2022/03/11 08:32:41;;;;;;;11.70;9.23;;;8.40;59.00;;;;;;5075204;28;20234;-76
2022/03/11 08:35:13;;;;;;;13.70;9.63;;;9.10;58.10;;;;;;5054252;28;20196;-77
2022/03/11 08:37:42;;;;;;;14.33;9.27;;;9.60;56.90;;;;;;5072749;28;20306;-77
2022/03/11 08:40:14;;;;;;;11.57;10.13;;;9.90;55.90;;;;;;5075630;28;20283;-80
2022/03/11 08:42:43;;;;;;;12.60;9.80;;;9.40;56.20;;;;;;5074708;28;20217;-78
2022/03/11 08:45:12;;;;;;;14.80;10.10;;;10.10;54.60;;;;;;5073915;28;20196;-77
2022/03/11 08:47:45;;;;;;;15.63;9.77;;;9.00;55.50;;;;;;5082202;28;20214;-78
2022/03/11 08:50:13;;;;;;;12.87;9.73;;;9.00;56.70;;;;;;5078328;28;20235;-75
2022/03/11 08:52:41;;;;;;;16.07;9.80;;;8.70;56.70;;;;;;5083574;28;20225;-79
2022/03/11 08:55:13;;;;;;;12.50;9.13;;;8.10;57.50;;;;;;5081328;28;20207;-75
2022/03/11 08:57:46;;;;;;;12.33;9.97;;;8.60;57.40;;;;;;5069397;28;20245;-80
2022/03/11 09:00:16;;;;;;;14.80;10.20;;;9.40;55.90;;;;;;5077208;28;20216;-76
2022/03/11 09:02:45;;;;;;;13.20;9.60;;;8.60;57.00;;;;;;5074828;28;20314;-76
2022/03/11 09:05:17;;;;;;;13.50;9.07;;;8.90;57.20;;;;;;5078336;28;20269;-76
2022/03/11 09:07:51;;;;;;;14.37;9.50;;;9.10;56.00;;;;;;5063320;28;20238;-78
2022/03/11 09:10:21;;;;;;;12.60;9.83;;;9.30;56.20;;;;;;5075532;28;20219;-81
2022/03/11 09:12:49;;;;;;;11.07;9.23;;;9.90;55.40;;;;;;5077596;28;20598;-79
2022/03/11 09:15:18;;;;;;;13.97;10.67;;;11.30;53.20;;;;;;5077758;28;20204;-78
2022/03/11 09:17:46;;;;;;;11.73;9.77;;;11.10;51.70;;;;;;5076763;28;20270;-76
2022/03/11 09:20:15;;;;;;;12.47;8.97;;;11.40;50.90;;;;;;5076058;28;20196;-78
2022/03/11 09:22:54;;;;;;;11.53;9.33;;;10.70;52.80;;;;;;5075829;28;20195;-78
2022/03/11 09:25:24;;;;;;;13.10;10.40;;;12.40;51.30;;;;;;5075679;28;20212;-80
2022/03/11 09:27:52;;;;;;;12.60;10.20;;;12.10;49.80;;;;;;5077997;28;20672;-77
2022/03/11 09:30:23;;;;;;;14.73;9.93;;;11.70;49.40;;;;;;5080727;28;20231;-74
2022/03/11 09:32:52;;;;;;;12.60;9.67;;;12.10;50.30;;;;;;5084425;28;20208;-80
2022/03/11 09:35:20;;;;;;;15.17;9.70;;;11.20;50.10;;;;;;5087366;28;20207;-80
2022/03/11 09:37:48;;;;;;;12.53;10.27;;;11.20;50.40;;;;;;5087682;28;20219;-77
2022/03/11 09:40:16;;;;;;;14.13;10.03;;;11.30;51.00;;;;;;5088540;28;20196;-76
2022/03/11 09:42:46;;;;;;;11.57;9.83;;;11.20;50.60;;;;;;5086047;28;20226;-77
2022/03/11 09:45:14;;;;;;;15.07;10.57;;;12.10;49.70;;;;;;5085808;28;20200;-77
2022/03/11 09:47:43;;;;;;;13.20;9.87;;;11.60;50.30;;;;;;5087064;28;20302;-75
2022/03/11 09:50:12;;;;;;;14.33;10.13;;;11.90;50.40;;;;;;5085844;28;20227;-77
2022/03/11 09:52:42;;;;;;;12.37;10.87;;;12.30;50.20;;;;;;5085532;28;20203;-76
2022/03/11 09:55:11;;;;;;;11.87;9.50;;;12.70;48.30;;;;;;5084928;28;20215;-75
2022/03/11 09:57:40;;;;;;;13.53;9.93;;;13.00;48.20;;;;;;5077478;28;20257;-76
2022/03/11 10:00:13;;;;;;;14.60;9.77;;;13.50;47.50;;;;;;5075332;28;20231;-76
2022/03/11 10:02:44;;;;;;;12.90;10.17;;;12.90;47.80;;;;;;5073703;28;20230;-75
2022/03/11 10:05:16;;;;;;;14.60;9.67;;;12.30;49.10;;;;;;5059852;28;20239;-75
2022/03/11 10:08:01;;;;;;;14.33;9.97;;;12.70;48.30;;;;;;5054152;28;20226;-76
2022/03/11 10:10:30;;;;;;;12.67;9.63;;;12.40;49.10;;;;;;5073898;28;20326;-74
2022/03/11 10:13:08;;;;;;;11.40;9.70;;;13.20;48.10;;;;;;5075065;28;20211;-76
2022/03/11 10:15:40;;;;;;;12.03;9.90;;;12.40;47.60;;;;;;5075116;28;20299;-77
2022/03/11 10:18:15;;;;;;;12.43;9.93;;;13.10;47.60;;;;;;5075181;28;20218;-77
2022/03/11 10:20:44;;;;;;;13.33;10.33;;;13.50;46.60;;;;;;5074832;28;20240;-76
2022/03/11 10:23:19;;;;;;;10.93;9.83;;;13.30;47.30;;;;;;5061909;28;20269;-76
2022/03/11 10:26:03;;;;;;;12.53;10.17;;;14.40;47.00;;;;;;5074861;28;20551;-76
2022/03/11 10:28:31;;;;;;;12.97;10.17;;;13.40;46.20;;;;;;5074677;28;20199;-75
2022/03/11 10:31:10;;;;;;;13.03;9.80;;;13.00;47.20;;;;;;5074259;28;20239;-77
2022/03/11 10:33:38;;;;;;;12.87;10.57;;;12.10;46.70;;;;;;5073926;28;20225;-78
2022/03/11 10:36:12;;;;;;;12.37;10.00;;;11.70;48.00;;;;;;5057808;28;20207;-78
2022/03/11 10:38:46;;;;;;;14.83;9.70;;;10.90;49.20;;;;;;5092116;28;20280;-75
2022/03/11 10:41:17;;;;;;;12.17;9.67;;;11.10;49.50;;;;;;5068679;28;20249;-76
2022/03/11 10:43:45;;;;;;;13.00;9.87;;;11.00;49.60;;;;;;5073708;28;20316;-79
2022/03/11 10:46:15;;;;;;;12.53;10.43;;;10.70;49.40;;;;;;5073948;28;20228;-78
2022/03/11 10:48:45;;;;;;;14.00;10.30;;;10.40;50.80;;;;;;5069438;28;20207;-75
2022/03/11 10:51:26;;;;;;;12.30;10.13;;;10.20;50.70;;;;;;5072302;28;20236;-77
2022/03/11 10:53:56;;;;;;;12.50;9.80;;;11.60;50.40;;;;;;5053938;28;20239;-74
2022/03/11 10:56:29;;;;;;;13.57;9.60;;;12.10;48.10;;;;;;5053162;28;20562;-73
2022/03/11 10:58:57;;;;;;;12.20;9.90;;;12.70;47.60;;;;;;5053358;28;20200;-76
2022/03/11 11:01:38;;;;;;;13.03;9.93;;;12.70;47.60;;;;;;5068539;28;20199;-76
2022/03/11 11:04:08;;;;;;;10.37;9.20;;;11.00;48.00;;;;;;5069030;28;20575;-75
2022/03/11 11:06:37;;;;;;;13.77;9.63;;;11.80;49.60;;;;;;5070727;28;20289;-77
2022/03/11 11:09:07;;;;;;;12.00;9.70;;;12.00;48.60;;;;;;5073792;28;20211;-75
2022/03/11 11:11:36;;;;;;;14.30;10.23;;;12.90;48.00;;;;;;5073198;28;20303;-76
2022/03/11 11:14:07;;;;;;;14.07;10.43;;;12.80;47.80;;;;;;5072792;28;20207;-77
2022/03/11 11:16:41;;;;;;;13.03;9.83;;;11.90;48.80;;;;;;5072238;28;20227;-76
2022/03/11 11:19:12;;;;;;;12.40;10.23;;;11.50;48.20;;;;;;5072537;28;20207;-76
2022/03/11 11:21:42;;;;;;;12.87;10.43;;;11.00;49.40;;;;;;5065440;28;20250;-76
2022/03/11 11:24:14;;;;;;;15.00;10.37;;;11.50;49.50;;;;;;5071604;28;20231;-77
2022/03/11 11:26:46;;;;;;;13.10;10.20;;;12.70;48.60;;;;;;5071256;28;20209;-78
2022/03/11 11:29:19;;;;;;;10.80;9.43;;;12.60;47.00;;;;;;5064218;28;20247;-76
2022/03/11 11:31:50;;;;;;;15.47;10.03;;;11.10;48.30;;;;;;5072254;28;20210;-76
2022/03/11 11:34:25;;;;;;;12.83;9.60;;;10.60;49.50;;;;;;5077018;28;20195;-75
2022/03/11 11:36:54;;;;;;;15.07;9.50;;;10.70;49.60;;;;;;5097412;28;20215;-76
2022/03/11 11:39:26;;;;;;;13.57;9.63;;;10.40;50.60;;;;;;5099529;28;20215;-74
2022/03/11 11:41:56;;;;;;;15.70;10.37;;;10.80;50.00;;;;;;5100287;28;20207;-78
2022/03/11 11:44:33;;;;;;;12.07;9.47;;;11.60;49.40;;;;;;5094444;28;20552;-76
2022/03/11 11:47:13;;;;;;;10.87;9.37;;;12.10;48.20;;;;;;5094054;28;20198;-79
2022/03/11 11:49:46;;;;;;;13.40;9.80;;;11.60;48.90;;;;;;5086723;28;20223;-75
2022/03/11 11:52:28;;;;;;;12.00;9.17;;;11.80;49.80;;;;;;5066153;28;20212;-76
2022/03/11 11:55:19;;;;;;;15.03;9.47;;;12.10;48.30;;;;;;5073263;28;20275;-76
2022/03/11 11:57:48;;;;;;;10.97;9.67;;;11.20;48.70;;;;;;5074246;28;20215;-79
2022/03/11 12:00:35;;;;;;;12.23;9.77;;;10.30;49.10;;;;;;5073520;28;20215;-79
2022/03/11 12:03:06;;;;;;;13.27;10.00;;;10.60;51.00;;;;;;5073241;28;20188;-76
2022/03/11 12:05:43;;;;;;;13.17;10.03;;;10.40;50.20;;;;;;5073297;28;20227;-76
2022/03/11 12:08:54;;;;;;;13.67;10.23;;;10.10;50.40;;;;;;5073034;28;20237;-75
2022/03/11 12:11:43;;;;;;;14.07;9.33;;;9.60;51.30;;;;;;5010806;28;20229;-76
2022/03/11 12:14:14;;;;;;;11.77;9.90;;;9.90;51.90;;;;;;5018106;28;20219;-76
2022/03/11 12:17:06;;;;;;;13.20;9.90;;;9.80;51.80;;;;;;5067700;28;20223;-77
2022/03/11 12:19:45;;;;;;;13.33;9.90;;;9.80;52.00;;;;;;5092382;28;20223;-74
2022/03/11 12:22:31;;;;;;;14.80;10.53;;;9.60;52.40;;;;;;5086204;28;20223;-75
2022/03/11 12:25:03;;;;;;;13.83;9.67;;;9.10;52.60;;;;;;5055149;28;20283;-79
2022/03/11 12:27:58;;;;;;;15.07;10.97;;;9.20;52.80;;;;;;5072782;28;20279;-74
2022/03/11 12:30:26;;;;;;;12.83;9.60;;;9.40;53.00;;;;;;5064301;28;20228;-76
2022/03/11 12:32:56;;;;;;;11.70;9.77;;;9.20;53.90;;;;;;5075017;28;20219;-74
2022/03/11 12:35:25;;;;;;;14.93;10.37;;;9.60;54.20;;;;;;5078013;28;20246;-75
2022/03/11 12:37:54;;;;;;;14.10;10.20;;;9.70;54.30;;;;;;5080878;28;20231;-74
2022/03/11 12:40:23;;;;;;;12.97;9.80;;;9.70;54.80;;;;;;5084918;28;20196;-74
2022/03/11 12:42:58;;;;;;;15.60;10.37;;;9.70;54.30;;;;;;5085074;28;20230;-74
2022/03/11 12:45:38;;;;;;;14.00;10.40;;;9.50;54.40;;;;;;5081912;28;20207;-76
2022/03/11 12:48:07;;;;;;;14.57;9.93;;;9.70;54.60;;;;;;5081908;28;20562;-77
2022/03/11 12:50:38;;;;;;;13.30;10.10;;;9.50;53.70;;;;;;5082048;28;20642;-76
2022/03/11 12:53:08;;;;;;;13.30;9.60;;;10.00;53.00;;;;;;5080573;28;21775;-76
2022/03/11 12:55:38;;;;;;;13.20;9.33;;;9.70;53.00;;;;;;5079318;28;20206;-76